Time;durP1;ratioP1;P1;durP2;ratioP2;P2;SDS_P1;SDS_P2;PMS_P1;PMS_P2;Temp;Humidity;BMP_temperature;BMP_pressure;BME280_temperature;BME280_humidity;BME280_pressure;Samples;Min_cycle;Max_cycle;Signal;HPM_P1;HPM_P2
2022/12/13 00:02:24;;;;;;;;;;;;;;;;;;5012039;28;19917;-76
2022/12/13 00:04:50;;;;;;;;;;;;;;;;;;5029579;28;20415;-77
2022/12/13 00:07:16;;;;;;;;;;;;;;;;;;5009048;28;20378;-77
2022/12/13 00:09:42;;;;;;;;;;;;;;;;;;5029044;28;20377;-77
2022/12/13 00:12:07;;;;;;;;;;;;;;;;;;5028809;28;19940;-76
2022/12/13 00:14:33;;;;;;;;;;;;;;;;;;5029129;28;19913;-76
2022/12/13 00:16:59;;;;;;;;;;;;;;;;;;5029520;28;19921;-75
2022/12/13 00:19:25;;;;;;;;;;;;;;;;;;5029762;28;19912;-76
2022/12/13 00:21:50;;;;;;;;;;;;;;;;;;5028759;28;19925;-76
2022/12/13 00:24:16;;;;;;;;;;;;;;;;;;4991423;28;19924;-76
2022/12/13 00:26:41;;;;;;;;;;;;;;;;;;5027117;28;20383;-76
2022/12/13 00:29:08;;;;;;;;;;;;;;;;;;5028178;28;20400;-77
2022/12/13 00:31:34;;;;;;;;;;;;;;;;;;5028192;28;19912;-76
2022/12/13 00:33:59;;;;;;;;;;;;;;;;;;5029402;28;19913;-78
2022/12/13 00:36:25;;;;;;;;;;;;;;;;;;5029011;28;20453;-77
2022/12/13 00:38:59;;;;;;;;;;;;;;;;;;5028739;28;20055;-74
2022/12/13 00:41:24;;;;;;;;;;;;;;;;;;5010897;28;19924;-75
2022/12/13 00:43:50;;;;;;;;;;;;;;;;;;5028199;28;19913;-76
2022/12/13 00:46:16;;;;;;;;;;;;;;;;;;5026840;28;19913;-76
2022/12/13 00:48:42;;;;;;;;;;;;;;;;;;5029231;28;19990;-76
2022/12/13 00:51:08;;;;;;;;;;;;;;;;;;5011303;28;20423;-74
2022/12/13 00:53:33;;;;;;;;;;;;;;;;;;5010627;28;19923;-74
2022/12/13 00:55:59;;;;;;;;;;;;;;;;;;5028788;28;19920;-75
2022/12/13 00:58:25;;;;;;;;;;;;;;;;;;5028674;28;20015;-76
2022/12/13 01:00:50;;;;;;;;;;;;;;;;;;5029541;28;19913;-76
2022/12/13 01:03:19;;;;;;;;;;;;;;;;;;5028790;28;19924;-74
2022/12/13 01:05:44;;;;;;;;;;;;;;;;;;5010687;28;19952;-74
2022/12/13 01:08:10;;;;;;;;;;;;;;;;;;5028478;28;20010;-76
2022/12/13 01:10:36;;;;;;;;;;;;;;;;;;5029710;28;19979;-77
2022/12/13 01:13:02;;;;;;;;;;;;;;;;;;5029541;28;19925;-77
2022/12/13 01:15:28;;;;;;;;;;;;;;;;;;5028943;28;19920;-77
2022/12/13 01:17:53;;;;;;;;;;;;;;;;;;5028325;28;20408;-76
2022/12/13 01:20:19;;;;;;;;;;;;;;;;;;5010769;28;19919;-77
2022/12/13 01:22:44;;;;;;;;;;;;;;;;;;5013088;28;19921;-76
2022/12/13 01:25:10;;;;;;;;;;;;;;;;;;5008256;28;19913;-78
2022/12/13 01:27:36;;;;;;;;;;;;;;;;;;4998823;28;19924;-78
2022/12/13 01:30:01;;;;;;;;;;;;;;;;;;5029550;28;19913;-77
2022/12/13 01:32:28;;;;;;;;;;;;;;;;;;5028836;28;19913;-77
2022/12/13 01:34:54;;;;;;;;;;;;;;;;;;5028694;28;19939;-78
2022/12/13 01:37:20;;;;;;;;;;;;;;;;;;5010557;28;19960;-76
2022/12/13 01:39:46;;;;;;;;;;;;;;;;;;5028597;28;20007;-77
2022/12/13 01:42:11;;;;;;;;;;;;;;;;;;5014541;28;19916;-77
2022/12/13 01:44:37;;;;;;;;;;;;;;;;;;5014820;28;20391;-76
2022/12/13 01:47:02;;;;;;;;;;;;;;;;;;5032443;28;19940;-76
2022/12/13 01:49:28;;;;;;;;;;;;;;;;;;5032201;28;19959;-76
2022/12/13 01:51:54;;;;;;;;;;;;;;;;;;5032301;28;19913;-77
2022/12/13 01:54:20;;;;;;;;;;;;;;;;;;5032246;28;20008;-76
2022/12/13 01:56:45;;;;;;;;;;;;;;;;;;5014787;28;20004;-75
2022/12/13 01:59:11;;;;;;;;;;;;;;;;;;5014600;28;19913;-78
2022/12/13 02:01:37;;;;;;;;;;;;;;;;;;5014326;28;20378;-75
2022/12/13 02:04:03;;;;;;;;;;;;;;;;;;5031507;28;19912;-77
2022/12/13 02:06:29;;;;;;;;;;;;;;;;;;5031324;28;20009;-76
2022/12/13 02:08:55;;;;;;;;;;;;;;;;;;5031202;28;19936;-76
2022/12/13 02:11:20;;;;;;;;;;;;;;;;;;5031007;28;19974;-77
2022/12/13 02:13:46;;;;;;;;;;;;;;;;;;5031286;28;19924;-78
2022/12/13 02:16:11;;;;;;;;;;;;;;;;;;5031570;28;19987;-78
2022/12/13 02:18:37;;;;;;;;;;;;;;;;;;5031606;28;20054;-79
2022/12/13 02:21:03;;;;;;;;;;;;;;;;;;5013034;28;20011;-78
2022/12/13 02:23:29;;;;;;;;;;;;;;;;;;5031040;28;19924;-79
2022/12/13 02:25:54;;;;;;;;;;;;;;;;;;5031129;28;20055;-79
2022/12/13 02:28:20;;;;;;;;;;;;;;;;;;5031465;28;20015;-78
2022/12/13 02:30:46;;;;;;;;;;;;;;;;;;5013325;28;20408;-78
2022/12/13 02:33:12;;;;;;;;;;;;;;;;;;5030834;28;19913;-78
2022/12/13 02:35:38;;;;;;;;;;;;;;;;;;5030906;28;19920;-79
2022/12/13 02:38:03;;;;;;;;;;;;;;;;;;5013545;28;19913;-77
2022/12/13 02:40:29;;;;;;;;;;;;;;;;;;5031054;28;19913;-79
2022/12/13 02:42:55;;;;;;;;;;;;;;;;;;5012807;28;20664;-79
2022/12/13 02:45:21;;;;;;;;;;;;;;;;;;5012054;28;19913;-78
2022/12/13 02:47:46;;;;;;;;;;;;;;;;;;5012471;28;19920;-78
2022/12/13 02:50:12;;;;;;;;;;;;;;;;;;5012482;28;20030;-77
2022/12/13 02:52:38;;;;;;;;;;;;;;;;;;5012568;28;19913;-76
2022/12/13 02:55:03;;;;;;;;;;;;;;;;;;5030107;28;19952;-78
2022/12/13 02:57:29;;;;;;;;;;;;;;;;;;5012724;28;19921;-78
2022/12/13 02:59:54;;;;;;;;;;;;;;;;;;5030505;28;19928;-78
2022/12/13 03:02:20;;;;;;;;;;;;;;;;;;5010743;28;20012;-79
2022/12/13 03:06:28;;;;;;;;;;;;;;;;;;5013001;28;20385;-80
2022/12/13 03:07:31;;;;;;;;;;;;;;;;;;5030674;28;19955;-80
2022/12/13 03:09:57;;;;;;;;;;;;;;;;;;5034900;28;19913;-78
2022/12/13 03:15:07;;;;;;;;;;;;;;;;;;5042570;28;19955;-78
2022/12/13 03:17:33;;;;;;;;;;;;;;;;;;5042208;28;19921;-77
2022/12/13 03:19:59;;;;;;;;;;;;;;;;;;5034783;28;20008;-78
2022/12/13 03:22:25;;;;;;;;;;;;;;;;;;5027696;28;19971;-77
2022/12/13 03:24:50;;;;;;;;;;;;;;;;;;5029866;28;20464;-79
2022/12/13 03:27:16;;;;;;;;;;;;;;;;;;5030144;28;20036;-78
2022/12/13 03:29:42;;;;;;;;;;;;;;;;;;5030193;28;19909;-77
2022/12/13 03:32:08;;;;;;;;;;;;;;;;;;5029841;28;19913;-77
2022/12/13 03:34:33;;;;;;;;;;;;;;;;;;5029433;28;20340;-76
2022/12/13 03:36:59;;;;;;;;;;;;;;;;;;5029593;28;19940;-77
2022/12/13 03:39:24;;;;;;;;;;;;;;;;;;5012069;28;20475;-76
2022/12/13 03:41:50;;;;;;;;;;;;;;;;;;5011677;28;20711;-77
2022/12/13 03:44:16;;;;;;;;;;;;;;;;;;5029455;28;19917;-76
2022/12/13 03:46:43;;;;;;;;;;;;;;;;;;5021327;28;20300;-76
2022/12/13 03:49:08;;;;;;;;;;;;;;;;;;4993358;28;19913;-76
2022/12/13 03:51:34;;;;;;;;;;;;;;;;;;5028007;28;20418;-77
2022/12/13 03:53:59;;;;;;;;;;;;;;;;;;5027409;28;19913;-77
2022/12/13 03:56:25;;;;;;;;;;;;;;;;;;5010217;28;19974;-77
2022/12/13 03:58:51;;;;;;;;;;;;;;;;;;5012126;28;19913;-78
2022/12/13 04:01:17;;;;;;;;;;;;;;;;;;5011364;28;20409;-78
2022/12/13 04:03:43;;;;;;;;;;;;;;;;;;5028593;28;19963;-78
2022/12/13 04:06:09;;;;;;;;;;;;;;;;;;5025521;28;20053;-79
2022/12/13 04:08:35;;;;;;;;;;;;;;;;;;5028853;28;19913;-79
2022/12/13 04:13:31;;;;;;;;;;;;;;;;;;5028309;28;19913;-78
2022/12/13 04:13:46;;;;;;;;;;;;;;;;;;5020258;28;20146;-78
2022/12/13 04:16:12;;;;;;;;;;;;;;;;;;5028595;28;19921;-78
2022/12/13 04:18:38;;;;;;;;;;;;;;;;;;5011355;28;19920;-78
2022/12/13 04:21:03;;;;;;;;;;;;;;;;;;4994663;28;19920;-78
2022/12/13 04:23:29;;;;;;;;;;;;;;;;;;5021720;28;19920;-79
2022/12/13 04:25:55;;;;;;;;;;;;;;;;;;5009450;28;20685;-80
2022/12/13 04:28:21;;;;;;;;;;;;;;;;;;5028054;28;19913;-81
2022/12/13 04:30:47;;;;;;;;;;;;;;;;;;5010438;28;19943;-80
2022/12/13 04:33:12;;;;;;;;;;;;;;;;;;5019336;28;19959;-79
2022/12/13 04:35:38;;;;;;;;;;;;;;;;;;5024339;28;19912;-79
2022/12/13 04:38:04;;;;;;;;;;;;;;;;;;5025364;28;20004;-79
2022/12/13 04:40:30;;;;;;;;;;;;;;;;;;5025583;28;19912;-78
2022/12/13 04:42:56;;;;;;;;;;;;;;;;;;5027642;28;20020;-78
2022/12/13 04:45:22;;;;;;;;;;;;;;;;;;5005934;28;19913;-78
2022/12/13 04:47:48;;;;;;;;;;;;;;;;;;5012375;28;19920;-77
2022/12/13 04:50:14;;;;;;;;;;;;;;;;;;5031221;28;20078;-77
2022/12/13 04:52:39;;;;;;;;;;;;;;;;;;5032014;28;20049;-78
2022/12/13 04:55:05;;;;;;;;;;;;;;;;;;5030161;28;19913;-78
2022/12/13 04:57:31;;;;;;;;;;;;;;;;;;5029909;28;20454;-79
2022/12/13 04:59:57;;;;;;;;;;;;;;;;;;5029716;28;20008;-78
2022/12/13 05:02:22;;;;;;;;;;;;;;;;;;5029645;28;19912;-78
2022/12/13 05:04:48;;;;;;;;;;;;;;;;;;5000598;28;19952;-78
2022/12/13 05:07:14;;;;;;;;;;;;;;;;;;5009867;28;19960;-79
2022/12/13 05:09:39;;;;;;;;;;;;;;;;;;4992231;28;20437;-78
2022/12/13 05:12:05;;;;;;;;;;;;;;;;;;4991822;28;19917;-79
2022/12/13 05:14:31;;;;;;;;;;;;;;;;;;5009264;28;19919;-79
2022/12/13 05:16:57;;;;;;;;;;;;;;;;;;5008973;28;20420;-78
2022/12/13 05:19:22;;;;;;;;;;;;;;;;;;5009362;28;20020;-77
2022/12/13 05:21:48;;;;;;;;;;;;;;;;;;5009446;28;19913;-78
2022/12/13 05:24:14;;;;;;;;;;;;;;;;;;5007659;28;20620;-76
2022/12/13 05:26:40;;;;;;;;;;;;;;;;;;4991903;28;20396;-78
2022/12/13 05:29:06;;;;;;;;;;;;;;;;;;5010300;28;20016;-79
2022/12/13 05:31:32;;;;;;;;;;;;;;;;;;5009832;28;20313;-79
2022/12/13 05:33:57;;;;;;;;;;;;;;;;;;5009589;28;19913;-78
2022/12/13 05:36:24;;;;;;;;;;;;;;;;;;5008753;28;19928;-79
2022/12/13 05:38:49;;;;;;;;;;;;;;;;;;4991619;28;19913;-78
2022/12/13 05:41:15;;;;;;;;;;;;;;;;;;5008924;28;19920;-78
2022/12/13 05:43:41;;;;;;;;;;;;;;;;;;4991498;28;19921;-77
2022/12/13 05:46:06;;;;;;;;;;;;;;;;;;5009023;28;19926;-78
2022/12/13 05:48:32;;;;;;;;;;;;;;;;;;5008966;28;20297;-77
2022/12/13 05:50:58;;;;;;;;;;;;;;;;;;4991384;28;19968;-78
2022/12/13 05:53:24;;;;;;;;;;;;;;;;;;5008996;28;20035;-77
2022/12/13 05:55:49;;;;;;;;;;;;;;;;;;5009033;28;19975;-78
2022/12/13 05:58:16;;;;;;;;;;;;;;;;;;5009144;28;19914;-78
2022/12/13 06:00:41;;;;;;;;;;;;;;;;;;4991324;28;19913;-78
2022/12/13 06:03:07;;;;;;;;;;;;;;;;;;5009284;28;20443;-78
2022/12/13 06:05:33;;;;;;;;;;;;;;;;;;4991435;28;20368;-81
2022/12/13 06:07:59;;;;;;;;;;;;;;;;;;5028150;28;20388;-80
2022/12/13 06:10:25;;;;;;;;;;;;;;;;;;5010961;28;19917;-80
2022/12/13 06:12:50;;;;;;;;;;;;;;;;;;5029006;28;19909;-81
2022/12/13 06:15:16;;;;;;;;;;;;;;;;;;5029251;28;20411;-80
2022/12/13 06:17:42;;;;;;;;;;;;;;;;;;5029229;28;20412;-81
2022/12/13 06:20:07;;;;;;;;;;;;;;;;;;5014594;28;19912;-82
2022/12/13 06:22:33;;;;;;;;;;;;;;;;;;5033398;28;19917;-82
2022/12/13 06:25:00;;;;;;;;;;;;;;;;;;5027570;28;19921;-82
2022/12/13 06:27:26;;;;;;;;;;;;;;;;;;5032349;28;19920;-80
2022/12/13 06:29:51;;;;;;;;;;;;;;;;;;5020649;28;19912;-81
2022/12/13 06:32:17;;;;;;;;;;;;;;;;;;5032362;28;20577;-81
2022/12/13 06:34:43;;;;;;;;;;;;;;;;;;5031902;28;20369;-80
2022/12/13 06:37:08;;;;;;;;;;;;;;;;;;5031625;28;19921;-80
2022/12/13 06:39:34;;;;;;;;;;;;;;;;;;5031152;28;20011;-80
2022/12/13 06:42:00;;;;;;;;;;;;;;;;;;5031002;28;20421;-78
2022/12/13 06:44:26;;;;;;;;;;;;;;;;;;5029382;28;20369;-78
2022/12/13 06:46:51;;;;;;;;;;;;;;;;;;5030697;28;19913;-77
2022/12/13 06:49:17;;;;;;;;;;;;;;;;;;5031041;28;20583;-78
2022/12/13 06:51:42;;;;;;;;;;;;;;;;;;5030574;28;19909;-79
2022/12/13 06:54:08;;;;;;;;;;;;;;;;;;5013742;28;20343;-79
2022/12/13 06:56:34;;;;;;;;;;;;;;;;;;5030573;28;20412;-78
2022/12/13 06:58:59;;;;;;;;;;;;;;;;;;5031042;28;20420;-80
2022/12/13 07:01:25;;;;;;;;;;;;;;;;;;5030279;28;19967;-79
2022/12/13 07:03:51;;;;;;;;;;;;;;;;;;5029741;28;20389;-79
2022/12/13 07:06:16;;;;;;;;;;;;;;;;;;5034402;28;19917;-78
2022/12/13 07:08:42;;;;;;;;;;;;;;;;;;5031420;28;19966;-79
2022/12/13 07:11:08;;;;;;;;;;;;;;;;;;5030733;28;19913;-77
2022/12/13 07:13:34;;;;;;;;;;;;;;;;;;5028731;28;19913;-77
2022/12/13 07:15:59;;;;;;;;;;;;;;;;;;5012466;28;19982;-79
2022/12/13 07:18:25;;;;;;;;;;;;;;;;;;5008141;28;19913;-77
2022/12/13 07:20:50;;;;;;;;;;;;;;;;;;5014105;28;19913;-77
2022/12/13 07:23:16;;;;;;;;;;;;;;;;;;5012343;28;19970;-77
2022/12/13 07:25:43;;;;;;;;;;;;;;;;;;5011401;28;19991;-77
2022/12/13 07:28:09;;;;;;;;;;;;;;;;;;5030061;28;20404;-77
2022/12/13 07:30:35;;;;;;;;;;;;;;;;;;5009091;28;19956;-79
2022/12/13 07:33:01;;;;;;;;;;;;;;;;;;5011029;28;20301;-79
2022/12/13 07:35:27;;;;;;;;;;;;;;;;;;5025900;28;20724;-79
2022/12/13 07:37:53;;;;;;;;;;;;;;;;;;5010727;28;19947;-78
2022/12/13 07:40:18;;;;;;;;;;;;;;;;;;5027549;28;20027;-79
2022/12/13 07:42:44;;;;;;;;;;;;;;;;;;5010621;28;19920;-78
2022/12/13 07:45:10;;;;;;;;;;;;;;;;;;5010170;28;19920;-78
2022/12/13 07:47:38;;;;;;;;;;;;;;;;;;5009996;28;19913;-78
2022/12/13 07:50:05;;;;;;;;;;;;;;;;;;4992696;28;19979;-76
2022/12/13 07:52:31;;;;;;;;;;;;;;;;;;5009642;28;20393;-76
2022/12/13 07:54:56;;;;;;;;;;;;;;;;;;5009599;28;19909;-76
2022/12/13 07:57:22;;;;;;;;;;;;;;;;;;5009243;28;20341;-78
2022/12/13 07:59:48;;;;;;;;;;;;;;;;;;4992017;28;20043;-77
2022/12/13 08:02:14;;;;;;;;;;;;;;;;;;5008256;28;19914;-77
2022/12/13 08:04:39;;;;;;;;;;;;;;;;;;5009552;28;19988;-79
2022/12/13 08:07:05;;;;;;;;;;;;;;;;;;5008354;28;20661;-78
2022/12/13 08:09:30;;;;;;;;;;;;;;;;;;5009574;28;19913;-75
2022/12/13 08:11:56;;;;;;;;;;;;;;;;;;5009200;28;19921;-79
2022/12/13 08:14:22;;;;;;;;;;;;;;;;;;5009236;28;19936;-78
2022/12/13 08:16:47;;;;;;;;;;;;;;;;;;5009346;28;19928;-77
2022/12/13 08:19:13;;;;;;;;;;;;;;;;;;5019722;28;19950;-77
2022/12/13 08:21:39;;;;;;;;;;;;;;;;;;5028734;28;19924;-78
2022/12/13 08:24:05;;;;;;;;;;;;;;;;;;5029299;28;19928;-76
2022/12/13 08:26:31;;;;;;;;;;;;;;;;;;5011216;28;19919;-77
2022/12/13 08:28:57;;;;;;;;;;;;;;;;;;5022245;28;19925;-76
2022/12/13 08:31:22;;;;;;;;;;;;;;;;;;5023135;28;20000;-75
2022/12/13 08:33:48;;;;;;;;;;;;;;;;;;5031411;28;20345;-75
2022/12/13 08:36:17;;;;;;;;;;;;;;;;;;5040256;28;19963;-74
2022/12/13 08:38:42;;;;;;;;;;;;;;;;;;5030035;28;20076;-75
2022/12/13 08:41:08;;;;;;;;;;;;;;;;;;5029115;28;20046;-77
2022/12/13 08:43:34;;;;;;;;;;;;;;;;;;5029146;28;19920;-77
2022/12/13 08:45:59;;;;;;;;;;;;;;;;;;5029054;28;19920;-78
2022/12/13 08:48:25;;;;;;;;;;;;;;;;;;5029039;28;20026;-78
2022/12/13 08:50:51;;;;;;;;;;;;;;;;;;5028549;28;19920;-77
2022/12/13 08:53:16;;;;;;;;;;;;;;;;;;5028802;28;19913;-77
2022/12/13 08:55:42;;;;;;;;;;;;;;;;;;5028124;28;19924;-76
2022/12/13 08:58:08;;;;;;;;;;;;;;;;;;5010528;28;19913;-75
2022/12/13 09:00:35;;;;;;;;;;;;;;;;;;5028058;28;19991;-76
2022/12/13 09:03:02;;;;;;;;;;;;;;;;;;5028167;28;19971;-77
2022/12/13 09:05:27;;;;;;;;;;;;;;;;;;5027937;28;19920;-77
2022/12/13 09:07:54;;;;;;;;;;;;;;;;;;5028001;28;19913;-77
2022/12/13 09:10:19;;;;;;;;;;;;;;;;;;5027947;28;19931;-77
2022/12/13 09:12:45;;;;;;;;;;;;;;;;;;5027960;28;19913;-77
2022/12/13 09:15:10;;;;;;;;;;;;;;;;;;5028159;28;19956;-78
2022/12/13 09:17:36;;;;;;;;;;;;;;;;;;5027735;28;19928;-77
2022/12/13 09:20:02;;;;;;;;;;;;;;;;;;5010777;28;19914;-79
2022/12/13 09:22:28;;;;;;;;;;;;;;;;;;5008107;28;20400;-78
2022/12/13 09:24:55;;;;;;;;;;;;;;;;;;5008421;28;19929;-77
2022/12/13 09:27:20;;;;;;;;;;;;;;;;;;5008108;28;20002;-77
2022/12/13 09:29:46;;;;;;;;;;;;;;;;;;4991322;28;20492;-78
2022/12/13 09:32:13;;;;;;;;;;;;;;;;;;5008277;28;19917;-78
2022/12/13 09:34:38;;;;;;;;;;;;;;;;;;5006577;28;19920;-77
2022/12/13 09:37:05;;;;;;;;;;;;;;;;;;5008017;28;20750;-78
2022/12/13 09:39:31;;;;;;;;;;;;;;;;;;5008022;28;19913;-76
2022/12/13 09:41:56;;;;;;;;;;;;;;;;;;5007910;28;20374;-79
2022/12/13 09:44:22;;;;;;;;;;;;;;;;;;5012441;28;19938;-77
2022/12/13 09:46:48;;;;;;;;;;;;;;;;;;5007658;28;20378;-76
2022/12/13 09:49:13;;;;;;;;;;;;;;;;;;4990319;28;19913;-75
2022/12/13 09:51:39;;;;;;;;;;;;;;;;;;5015727;28;19917;-76
2022/12/13 09:54:04;;;;;;;;;;;;;;;;;;5027234;28;20388;-76
2022/12/13 09:56:30;;;;;;;;;;;;;;;;;;5009783;28;19921;-76
2022/12/13 09:58:56;;;;;;;;;;;;;;;;;;5027933;28;19913;-76
2022/12/13 10:01:22;;;;;;;;;;;;;;;;;;5009366;28;19932;-76
2022/12/13 10:03:48;;;;;;;;;;;;;;;;;;5017365;28;20397;-77
2022/12/13 10:06:14;;;;;;;;;;;;;;;;;;5011656;28;19960;-79
2022/12/13 10:08:39;;;;;;;;;;;;;;;;;;5018982;28;19912;-76
2022/12/13 10:11:05;;;;;;;;;;;;;;;;;;5013101;28;19948;-75
2022/12/13 10:13:31;;;;;;;;;;;;;;;;;;5030985;28;19917;-77
2022/12/13 10:15:57;;;;;;;;;;;;;;;;;;5011582;28;19917;-77
2022/12/13 10:18:22;;;;;;;;;;;;;;;;;;5030729;28;19920;-78
2022/12/13 10:20:48;;;;;;;;;;;;;;;;;;5029502;28;19913;-76
2022/12/13 10:23:14;;;;;;;;;;;;;;;;;;5013038;28;19924;-75
2022/12/13 10:25:40;;;;;;;;;;;;;;;;;;5022283;28;20401;-77
2022/12/13 10:28:06;;;;;;;;;;;;;;;;;;4993569;28;19913;-76
2022/12/13 10:30:31;;;;;;;;;;;;;;;;;;5019804;28;20766;-78
2022/12/13 10:32:57;;;;;;;;;;;;;;;;;;5030437;28;19913;-78
2022/12/13 10:35:23;;;;;;;;;;;;;;;;;;5030890;28;19920;-77
2022/12/13 10:37:48;;;;;;;;;;;;;;;;;;5030450;28;19920;-78
2022/12/13 10:40:14;;;;;;;;;;;;;;;;;;5030862;28;19940;-77
2022/12/13 10:42:40;;;;;;;;;;;;;;;;;;5027986;28;19913;-77
2022/12/13 10:45:05;;;;;;;;;;;;;;;;;;5031112;28;19920;-79
2022/12/13 10:47:31;;;;;;;;;;;;;;;;;;5030424;28;19924;-79
2022/12/13 10:49:56;;;;;;;;;;;;;;;;;;5027628;28;19963;-79
2022/12/13 10:52:22;;;;;;;;;;;;;;;;;;5029466;28;20454;-79
2022/12/13 10:54:48;;;;;;;;;;;;;;;;;;5029077;28;19920;-81
2022/12/13 10:57:14;;;;;;;;;;;;;;;;;;5013483;28;19921;-81
2022/12/13 10:59:40;;;;;;;;;;;;;;;;;;5029931;28;20484;-80
2022/12/13 11:02:05;;;;;;;;;;;;;;;;;;5009374;28;19943;-79
2022/12/13 11:04:31;;;;;;;;;;;;;;;;;;5010962;28;20349;-79
2022/12/13 11:06:57;;;;;;;;;;;;;;;;;;5011616;28;19918;-80
2022/12/13 11:09:23;;;;;;;;;;;;;;;;;;5030366;28;20012;-80
2022/12/13 11:11:48;;;;;;;;;;;;;;;;;;5030227;28;19920;-80
2022/12/13 11:14:14;;;;;;;;;;;;;;;;;;5029747;28;20008;-79
2022/12/13 11:16:41;;;;;;;;;;;;;;;;;;5030376;28;19921;-80
2022/12/13 11:19:07;;;;;;;;;;;;;;;;;;5020385;28;19925;-80
2022/12/13 11:21:33;;;;;;;;;;;;;;;;;;4992705;28;20032;-76
2022/12/13 11:23:59;;;;;;;;;;;;;;;;;;5008975;28;19921;-77
2022/12/13 11:26:27;;;;;;;;;;;;;;;;;;4992141;28;19921;-76
2022/12/13 11:28:53;;;;;;;;;;;;;;;;;;5010009;28;19967;-77
2022/12/13 11:31:19;;;;;;;;;;;;;;;;;;5009902;28;19913;-78
2022/12/13 11:33:48;;;;;;;;;;;;;;;;;;5008406;28;20290;-77
2022/12/13 11:36:22;;;;;;;;;;;;;;;;;;5020427;28;20016;-75
2022/12/13 11:39:09;;;;;;;;;;;;;;;;;;5029103;28;19913;-77
2022/12/13 11:41:36;;;;;;;;;;;;;;;;;;5011523;28;20447;-76
2022/12/13 11:44:02;;;;;;;;;;;;;;;;;;5012192;28;20031;-77
2022/12/13 11:46:28;;;;;;;;;;;;;;;;;;5011231;28;20007;-76
2022/12/13 11:48:54;;;;;;;;;;;;;;;;;;5029964;28;19913;-75
2022/12/13 11:51:20;;;;;;;;;;;;;;;;;;5029586;28;19920;-75
2022/12/13 11:53:45;;;;;;;;;;;;;;;;;;5029181;28;19921;-75
2022/12/13 11:56:11;;;;;;;;;;;;;;;;;;5011632;28;19928;-75
2022/12/13 11:58:37;;;;;;;;;;;;;;;;;;5029118;28;19960;-75
2022/12/13 12:01:03;;;;;;;;;;;;;;;;;;5029446;28;19984;-76
2022/12/13 12:03:28;;;;;;;;;;;;;;;;;;5029113;28;20350;-75
2022/12/13 12:05:54;;;;;;;;;;;;;;;;;;5011674;28;19927;-75
2022/12/13 12:08:20;;;;;;;;;;;;;;;;;;5029672;28;19913;-78
2022/12/13 12:10:46;;;;;;;;;;;;;;;;;;5030766;28;19967;-79
2022/12/13 12:13:12;;;;;;;;;;;;;;;;;;5031723;28;19917;-82
2022/12/13 12:15:40;;;;;;;;;;;;;;;;;;5033242;28;19919;-78
2022/12/13 12:18:06;;;;;;;;;;;;;;;;;;5028943;28;19947;-79
2022/12/13 12:20:32;;;;;;;;;;;;;;;;;;5009200;28;20356;-81
2022/12/13 12:22:57;;;;;;;;;;;;;;;;;;5011780;28;20007;-80
2022/12/13 12:25:23;;;;;;;;;;;;;;;;;;5017393;28;20003;-80
2022/12/13 12:27:49;;;;;;;;;;;;;;;;;;5027506;28;20388;-80
2022/12/13 12:30:15;;;;;;;;;;;;;;;;;;5006762;28;19913;-77
2022/12/13 12:32:40;;;;;;;;;;;;;;;;;;4991196;28;19920;-77
2022/12/13 12:35:06;;;;;;;;;;;;;;;;;;4991363;28;19913;-78
2022/12/13 12:37:31;;;;;;;;;;;;;;;;;;5007539;28;19921;-77
2022/12/13 12:39:57;;;;;;;;;;;;;;;;;;5010941;28;19928;-79
2022/12/13 12:42:23;;;;;;;;;;;;;;;;;;5028492;28;19913;-80
2022/12/13 12:44:49;;;;;;;;;;;;;;;;;;5028075;28;19920;-78
2022/12/13 12:47:17;;;;;;;;;;;;;;;;;;5028395;28;20427;-78
2022/12/13 12:49:46;;;;;;;;;;;;;;;;;;5028641;28;19912;-79
2022/12/13 12:52:11;;;;;;;;;;;;;;;;;;5028757;28;20417;-80
2022/12/13 12:54:37;;;;;;;;;;;;;;;;;;5028238;28;19913;-80
2022/12/13 12:57:03;;;;;;;;;;;;;;;;;;5028731;28;19921;-80
2022/12/13 12:59:29;;;;;;;;;;;;;;;;;;5028952;28;19962;-80
2022/12/13 13:01:54;;;;;;;;;;;;;;;;;;5027989;28;20458;-80
2022/12/13 13:04:20;;;;;;;;;;;;;;;;;;5011243;28;19917;-80
2022/12/13 13:06:46;;;;;;;;;;;;;;;;;;5028003;28;19913;-79
2022/12/13 13:09:11;;;;;;;;;;;;;;;;;;5026917;28;19920;-77
2022/12/13 13:11:40;;;;;;;;;;;;;;;;;;5010731;28;19917;-80
2022/12/13 13:14:07;;;;;;;;;;;;;;;;;;5030108;28;19920;-78
2022/12/13 13:16:32;;;;;;;;;;;;;;;;;;5028472;28;19921;-82
2022/12/13 13:18:58;;;;;;;;;;;;;;;;;;5019413;28;20440;-79
2022/12/13 13:21:24;;;;;;;;;;;;;;;;;;5008215;28;19914;-76
2022/12/13 13:23:50;;;;;;;;;;;;;;;;;;5016174;28;19983;-77
2022/12/13 13:26:15;;;;;;;;;;;;;;;;;;5022885;28;19913;-78
2022/12/13 13:28:42;;;;;;;;;;;;;;;;;;5020320;28;19982;-77
2022/12/13 13:31:09;;;;;;;;;;;;;;;;;;5020432;28;20385;-77
2022/12/13 13:33:35;;;;;;;;;;;;;;;;;;5015974;28;19913;-77
2022/12/13 13:36:01;;;;;;;;;;;;;;;;;;5015942;28;19913;-77
2022/12/13 13:38:27;;;;;;;;;;;;;;;;;;5021202;28;19921;-77
2022/12/13 13:40:52;;;;;;;;;;;;;;;;;;5009896;28;19920;-79
2022/12/13 13:43:19;;;;;;;;;;;;;;;;;;4995190;28;19920;-78
2022/12/13 13:45:45;;;;;;;;;;;;;;;;;;5023834;28;20407;-77
2022/12/13 13:48:11;;;;;;;;;;;;;;;;;;5021006;28;19913;-79
2022/12/13 13:50:37;;;;;;;;;;;;;;;;;;5010578;28;19924;-77
2022/12/13 13:53:02;;;;;;;;;;;;;;;;;;4999847;28;19939;-77
2022/12/13 13:55:28;;;;;;;;;;;;;;;;;;5024134;28;19968;-79
2022/12/13 13:57:54;;;;;;;;;;;;;;;;;;5039522;28;19944;-79
2022/12/13 14:00:19;;;;;;;;;;;;;;;;;;5034296;28;19936;-78
2022/12/13 14:02:45;;;;;;;;;;;;;;;;;;5026533;28;20074;-79
2022/12/13 14:05:11;;;;;;;;;;;;;;;;;;5031677;28;19913;-80
2022/12/13 14:07:37;;;;;;;;;;;;;;;;;;5030043;28;19917;-80
2022/12/13 14:10:03;;;;;;;;;;;;;;;;;;5025418;28;20389;-79
2022/12/13 14:12:28;;;;;;;;;;;;;;;;;;4998429;28;19913;-78
2022/12/13 14:14:54;;;;;;;;;;;;;;;;;;5029378;28;20369;-80
2022/12/13 14:17:20;;;;;;;;;;;;;;;;;;5026574;28;19921;-79
2022/12/13 14:19:45;;;;;;;;;;;;;;;;;;5008608;28;20274;-80
2022/12/13 14:22:11;;;;;;;;;;;;;;;;;;5009371;28;19988;-77
2022/12/13 14:24:37;;;;;;;;;;;;;;;;;;5011310;28;20024;-76
2022/12/13 14:27:03;;;;;;;;;;;;;;;;;;5027402;28;19913;-81
2022/12/13 14:29:31;;;;;;;;;;;;;;;;;;5009532;28;19971;-78
2022/12/13 14:31:56;;;;;;;;;;;;;;;;;;5010895;28;20024;-78
2022/12/13 14:34:22;;;;;;;;;;;;;;;;;;5006222;28;20000;-79
2022/12/13 14:36:48;;;;;;;;;;;;;;;;;;5029588;28;19921;-83
2022/12/13 14:39:14;;;;;;;;;;;;;;;;;;4978097;28;19913;-80
2022/12/13 14:41:40;;;;;;;;;;;;;;;;;;5031216;28;20385;-78
2022/12/13 14:44:06;;;;;;;;;;;;;;;;;;5030266;28;20015;-77
2022/12/13 14:46:31;;;;;;;;;;;;;;;;;;5008377;28;19913;-78
2022/12/13 14:48:57;;;;;;;;;;;;;;;;;;5026604;28;20015;-78
2022/12/13 14:51:23;;;;;;;;;;;;;;;;;;5005801;28;19913;-78
2022/12/13 14:53:48;;;;;;;;;;;;;;;;;;5025894;28;19916;-78
2022/12/13 14:56:14;;;;;;;;;;;;;;;;;;5006897;28;19924;-77
2022/12/13 14:58:40;;;;;;;;;;;;;;;;;;5028747;28;20015;-77
2022/12/13 15:01:06;;;;;;;;;;;;;;;;;;5025901;28;20293;-79
2022/12/13 15:03:33;;;;;;;;;;;;;;;;;;5011803;28;19920;-75
2022/12/13 15:05:59;;;;;;;;;;;;;;;;;;5029485;28;20036;-78
2022/12/13 15:08:25;;;;;;;;;;;;;;;;;;5027710;28;20007;-78
2022/12/13 15:10:50;;;;;;;;;;;;;;;;;;5013103;28;19914;-78
2022/12/13 15:13:16;;;;;;;;;;;;;;;;;;5010778;28;19920;-79
2022/12/13 15:15:43;;;;;;;;;;;;;;;;;;5002907;28;19920;-78
2022/12/13 15:18:10;;;;;;;;;;;;;;;;;;5028224;28;19921;-80
2022/12/13 15:20:39;;;;;;;;;;;;;;;;;;5008947;28;20044;-81
2022/12/13 15:23:10;;;;;;;;;;;;;;;;;;4993796;28;19922;-79
2022/12/13 15:25:39;;;;;;;;;;;;;;;;;;5025296;28;19913;-80
2022/12/13 15:28:04;;;;;;;;;;;;;;;;;;5010677;28;19913;-79
2022/12/13 15:30:30;;;;;;;;;;;;;;;;;;5004144;28;20000;-80
2022/12/13 15:32:56;;;;;;;;;;;;;;;;;;5020491;28;19913;-77
2022/12/13 15:35:21;;;;;;;;;;;;;;;;;;5018037;28;20393;-78
2022/12/13 15:37:47;;;;;;;;;;;;;;;;;;5034950;28;19917;-79
2022/12/13 15:40:13;;;;;;;;;;;;;;;;;;5025835;28;19925;-80
2022/12/13 15:42:38;;;;;;;;;;;;;;;;;;4992428;28;19913;-79
2022/12/13 15:45:04;;;;;;;;;;;;;;;;;;5010035;28;19967;-78
2022/12/13 15:47:30;;;;;;;;;;;;;;;;;;5007658;28;20027;-76
2022/12/13 15:49:56;;;;;;;;;;;;;;;;;;5027240;28;19932;-75
2022/12/13 15:52:21;;;;;;;;;;;;;;;;;;5027484;28;20011;-78
2022/12/13 15:54:47;;;;;;;;;;;;;;;;;;4990799;28;19913;-78
2022/12/13 15:57:13;;;;;;;;;;;;;;;;;;5008833;28;19925;-76
2022/12/13 15:59:41;;;;;;;;;;;;;;;;;;5015898;28;19917;-78
2022/12/13 16:02:07;;;;;;;;;;;;;;;;;;5006914;28;20397;-76
2022/12/13 16:04:32;;;;;;;;;;;;;;;;;;5019339;28;20003;-79
2022/12/13 16:06:58;;;;;;;;;;;;;;;;;;5022290;28;19913;-78
2022/12/13 16:09:23;;;;;;;;;;;;;;;;;;5009264;28;19920;-79
2022/12/13 16:11:49;;;;;;;;;;;;;;;;;;5027461;28;19921;-77
2022/12/13 16:14:15;;;;;;;;;;;;;;;;;;4989562;28;19924;-76
2022/12/13 16:16:41;;;;;;;;;;;;;;;;;;5024395;28;19921;-75
2022/12/13 16:19:06;;;;;;;;;;;;;;;;;;5026823;28;19952;-77
2022/12/13 16:21:32;;;;;;;;;;;;;;;;;;5027391;28;19916;-75
2022/12/13 16:23:58;;;;;;;;;;;;;;;;;;5026735;28;19963;-76
2022/12/13 16:26:25;;;;;;;;;;;;;;;;;;5015690;28;19913;-75
2022/12/13 16:28:50;;;;;;;;;;;;;;;;;;5026981;28;19971;-74
2022/12/13 16:31:20;;;;;;;;;;;;;;;;;;5009914;28;20325;-75
2022/12/13 16:33:45;;;;;;;;;;;;;;;;;;5023781;28;20581;-75
2022/12/13 16:36:11;;;;;;;;;;;;;;;;;;5007601;28;19920;-77
2022/12/13 16:38:37;;;;;;;;;;;;;;;;;;5027704;28;19952;-75
2022/12/13 16:41:02;;;;;;;;;;;;;;;;;;5025127;28;19975;-77